sensor_id;sensor_type;location;lat;lon;timestamp;P1;durP1;ratioP1;P2;durP2;ratioP2
64469;SDS011;50854;48.538;14.352;2023-04-25T00:00:57;3.73;;;2.43;;
64469;SDS011;50854;48.538;14.352;2023-04-25T00:01:57;5.23;;;3.10;;
64469;SDS011;50854;48.538;14.352;2023-04-25T00:02:57;8.30;;;3.17;;
64469;SDS011;50854;48.538;14.352;2023-04-25T00:03:59;5.70;;;3.08;;
64469;SDS011;50854;48.538;14.352;2023-04-25T00:05:01;8.07;;;2.72;;
64469;SDS011;50854;48.538;14.352;2023-04-25T00:06:03;5.55;;;2.67;;
64469;SDS011;50854;48.538;14.352;2023-04-25T00:07:03;9.30;;;2.80;;
64469;SDS011;50854;48.538;14.352;2023-04-25T00:08:04;7.97;;;3.50;;
64469;SDS011;50854;48.538;14.352;2023-04-25T00:09:05;4.30;;;3.07;;
64469;SDS011;50854;48.538;14.352;2023-04-25T00:10:07;4.70;;;3.13;;
64469;SDS011;50854;48.538;14.352;2023-04-25T00:11:08;4.78;;;2.88;;
64469;SDS011;50854;48.538;14.352;2023-04-25T00:12:08;5.63;;;2.83;;
64469;SDS011;50854;48.538;14.352;2023-04-25T00:13:08;4.30;;;3.20;;
64469;SDS011;50854;48.538;14.352;2023-04-25T00:14:11;5.50;;;3.20;;
64469;SDS011;50854;48.538;14.352;2023-04-25T00:15:11;7.80;;;3.20;;
64469;SDS011;50854;48.538;14.352;2023-04-25T00:16:12;4.50;;;2.88;;
64469;SDS011;50854;48.538;14.352;2023-04-25T00:17:15;4.10;;;2.95;;
64469;SDS011;50854;48.538;14.352;2023-04-25T00:18:16;4.93;;;3.10;;
64469;SDS011;50854;48.538;14.352;2023-04-25T00:19:17;5.30;;;3.10;;
64469;SDS011;50854;48.538;14.352;2023-04-25T00:20:18;6.50;;;3.20;;
64469;SDS011;50854;48.538;14.352;2023-04-25T00:21:18;3.40;;;2.63;;
64469;SDS011;50854;48.538;14.352;2023-04-25T00:23:19;3.65;;;2.60;;
64469;SDS011;50854;48.538;14.352;2023-04-25T00:24:20;5.60;;;3.37;;
64469;SDS011;50854;48.538;14.352;2023-04-25T00:25:20;4.53;;;3.20;;
64469;SDS011;50854;48.538;14.352;2023-04-25T00:26:20;5.17;;;3.30;;
64469;SDS011;50854;48.538;14.352;2023-04-25T00:27:21;18.53;;;3.90;;
64469;SDS011;50854;48.538;14.352;2023-04-25T00:28:21;5.13;;;3.20;;
64469;SDS011;50854;48.538;14.352;2023-04-25T00:29:21;5.77;;;3.60;;
64469;SDS011;50854;48.538;14.352;2023-04-25T00:30:21;8.37;;;3.80;;
64469;SDS011;50854;48.538;14.352;2023-04-25T00:31:22;7.57;;;3.63;;
64469;SDS011;50854;48.538;14.352;2023-04-25T00:32:22;7.03;;;3.90;;
64469;SDS011;50854;48.538;14.352;2023-04-25T00:33:22;8.03;;;3.20;;
64469;SDS011;50854;48.538;14.352;2023-04-25T00:34:22;4.97;;;3.70;;
64469;SDS011;50854;48.538;14.352;2023-04-25T00:35:23;4.77;;;3.70;;
64469;SDS011;50854;48.538;14.352;2023-04-25T00:36:23;4.47;;;3.63;;
64469;SDS011;50854;48.538;14.352;2023-04-25T00:37:23;6.23;;;3.37;;
64469;SDS011;50854;48.538;14.352;2023-04-25T00:38:23;8.47;;;4.23;;
64469;SDS011;50854;48.538;14.352;2023-04-25T00:39:24;4.83;;;3.20;;
64469;SDS011;50854;48.538;14.352;2023-04-25T00:40:24;4.50;;;3.20;;
64469;SDS011;50854;48.538;14.352;2023-04-25T00:41:25;4.30;;;3.33;;
64469;SDS011;50854;48.538;14.352;2023-04-25T00:42:25;4.10;;;3.30;;
64469;SDS011;50854;48.538;14.352;2023-04-25T00:43:26;4.30;;;3.67;;
64469;SDS011;50854;48.538;14.352;2023-04-25T00:44:26;4.68;;;3.35;;
64469;SDS011;50854;48.538;14.352;2023-04-25T00:45:28;5.35;;;3.55;;
64469;SDS011;50854;48.538;14.352;2023-04-25T00:46:29;4.75;;;3.67;;
64469;SDS011;50854;48.538;14.352;2023-04-25T00:48:31;5.90;;;3.33;;
64469;SDS011;50854;48.538;14.352;2023-04-25T00:49:31;5.67;;;3.23;;
64469;SDS011;50854;48.538;14.352;2023-04-25T00:50:34;4.60;;;3.53;;
64469;SDS011;50854;48.538;14.352;2023-04-25T00:51:35;4.50;;;3.17;;
64469;SDS011;50854;48.538;14.352;2023-04-25T00:52:37;6.07;;;3.33;;
64469;SDS011;50854;48.538;14.352;2023-04-25T00:53:37;5.90;;;3.38;;
64469;SDS011;50854;48.538;14.352;2023-04-25T00:54:38;5.47;;;4.00;;
64469;SDS011;50854;48.538;14.352;2023-04-25T00:55:38;7.90;;;3.93;;
64469;SDS011;50854;48.538;14.352;2023-04-25T00:56:38;5.23;;;3.80;;
64469;SDS011;50854;48.538;14.352;2023-04-25T00:57:39;7.03;;;4.18;;
64469;SDS011;50854;48.538;14.352;2023-04-25T00:58:40;5.15;;;3.60;;
64469;SDS011;50854;48.538;14.352;2023-04-25T00:59:41;8.93;;;3.50;;
64469;SDS011;50854;48.538;14.352;2023-04-25T01:00:45;5.72;;;3.40;;
64469;SDS011;50854;48.538;14.352;2023-04-25T01:01:46;8.10;;;3.97;;
64469;SDS011;50854;48.538;14.352;2023-04-25T01:02:46;4.50;;;3.40;;
64469;SDS011;50854;48.538;14.352;2023-04-25T01:03:47;5.23;;;3.53;;
64469;SDS011;50854;48.538;14.352;2023-04-25T01:04:49;7.68;;;3.55;;
64469;SDS011;50854;48.538;14.352;2023-04-25T01:05:50;5.93;;;3.60;;
64469;SDS011;50854;48.538;14.352;2023-04-25T01:06:50;7.13;;;3.78;;
64469;SDS011;50854;48.538;14.352;2023-04-25T01:07:51;4.03;;;2.90;;
64469;SDS011;50854;48.538;14.352;2023-04-25T01:08:51;6.20;;;3.80;;
64469;SDS011;50854;48.538;14.352;2023-04-25T01:09:52;6.43;;;3.83;;
64469;SDS011;50854;48.538;14.352;2023-04-25T01:10:52;5.38;;;3.88;;
64469;SDS011;50854;48.538;14.352;2023-04-25T01:11:52;5.70;;;3.90;;
64469;SDS011;50854;48.538;14.352;2023-04-25T01:12:52;6.33;;;3.80;;
64469;SDS011;50854;48.538;14.352;2023-04-25T01:13:53;5.30;;;3.73;;
64469;SDS011;50854;48.538;14.352;2023-04-25T01:14:53;5.37;;;3.40;;
64469;SDS011;50854;48.538;14.352;2023-04-25T01:15:53;5.50;;;3.50;;
64469;SDS011;50854;48.538;14.352;2023-04-25T01:16:54;9.23;;;3.75;;
64469;SDS011;50854;48.538;14.352;2023-04-25T01:17:54;5.57;;;4.00;;
64469;SDS011;50854;48.538;14.352;2023-04-25T01:18:55;6.10;;;3.90;;
64469;SDS011;50854;48.538;14.352;2023-04-25T01:19:55;5.50;;;3.73;;
64469;SDS011;50854;48.538;14.352;2023-04-25T01:20:55;5.20;;;4.00;;
64469;SDS011;50854;48.538;14.352;2023-04-25T01:21:58;4.68;;;3.47;;
64469;SDS011;50854;48.538;14.352;2023-04-25T01:22:58;6.77;;;3.77;;
64469;SDS011;50854;48.538;14.352;2023-04-25T01:23:58;6.00;;;3.50;;
64469;SDS011;50854;48.538;14.352;2023-04-25T01:24:59;4.88;;;3.20;;
64469;SDS011;50854;48.538;14.352;2023-04-25T01:26:00;4.93;;;3.33;;
64469;SDS011;50854;48.538;14.352;2023-04-25T01:27:00;5.63;;;3.80;;
64469;SDS011;50854;48.538;14.352;2023-04-25T01:29:03;4.88;;;3.33;;
64469;SDS011;50854;48.538;14.352;2023-04-25T01:30:04;7.25;;;3.58;;
64469;SDS011;50854;48.538;14.352;2023-04-25T01:31:04;5.30;;;3.67;;
64469;SDS011;50854;48.538;14.352;2023-04-25T01:32:05;5.60;;;3.83;;
64469;SDS011;50854;48.538;14.352;2023-04-25T01:33:06;7.17;;;3.93;;
64469;SDS011;50854;48.538;14.352;2023-04-25T01:34:07;5.53;;;3.70;;
64469;SDS011;50854;48.538;14.352;2023-04-25T01:35:08;7.90;;;4.00;;
64469;SDS011;50854;48.538;14.352;2023-04-25T01:36:09;5.35;;;3.50;;
64469;SDS011;50854;48.538;14.352;2023-04-25T01:37:09;10.13;;;3.67;;
64469;SDS011;50854;48.538;14.352;2023-04-25T01:38:11;5.23;;;3.83;;
64469;SDS011;50854;48.538;14.352;2023-04-25T01:39:11;5.38;;;3.90;;
64469;SDS011;50854;48.538;14.352;2023-04-25T01:40:12;5.73;;;3.40;;
64469;SDS011;50854;48.538;14.352;2023-04-25T01:41:13;6.90;;;3.88;;
64469;SDS011;50854;48.538;14.352;2023-04-25T01:42:14;5.60;;;3.70;;
64469;SDS011;50854;48.538;14.352;2023-04-25T01:43:14;9.30;;;3.70;;
64469;SDS011;50854;48.538;14.352;2023-04-25T01:45:24;6.78;;;4.25;;
64469;SDS011;50854;48.538;14.352;2023-04-25T01:46:25;7.03;;;4.00;;
64469;SDS011;50854;48.538;14.352;2023-04-25T01:47:25;5.22;;;3.55;;
64469;SDS011;50854;48.538;14.352;2023-04-25T01:48:26;5.00;;;3.77;;
64469;SDS011;50854;48.538;14.352;2023-04-25T01:49:26;7.07;;;4.13;;
64469;SDS011;50854;48.538;14.352;2023-04-25T01:50:26;6.03;;;3.97;;
64469;SDS011;50854;48.538;14.352;2023-04-25T01:51:26;5.80;;;4.03;;
64469;SDS011;50854;48.538;14.352;2023-04-25T01:52:27;7.13;;;4.30;;
64469;SDS011;50854;48.538;14.352;2023-04-25T01:53:27;7.73;;;4.40;;
64469;SDS011;50854;48.538;14.352;2023-04-25T01:54:27;5.90;;;4.23;;
64469;SDS011;50854;48.538;14.352;2023-04-25T13:46:05;5.22;;;0.98;;
64469;SDS011;50854;48.538;14.352;2023-04-25T13:47:06;0.87;;;0.83;;
64469;SDS011;50854;48.538;14.352;2023-04-25T13:48:06;1.10;;;0.80;;
64469;SDS011;50854;48.538;14.352;2023-04-25T13:49:06;4.97;;;1.10;;
64469;SDS011;50854;48.538;14.352;2023-04-25T13:50:07;0.80;;;0.80;;
64469;SDS011;50854;48.538;14.352;2023-04-25T13:51:07;0.80;;;0.77;;
64469;SDS011;50854;48.538;14.352;2023-04-25T13:52:08;0.55;;;0.55;;
64469;SDS011;50854;48.538;14.352;2023-04-25T13:53:09;0.50;;;0.50;;
64469;SDS011;50854;48.538;14.352;2023-04-25T13:54:09;1.07;;;0.40;;
64469;SDS011;50854;48.538;14.352;2023-04-25T13:55:09;0.70;;;0.57;;
64469;SDS011;50854;48.538;14.352;2023-04-25T13:56:10;0.80;;;0.60;;
64469;SDS011;50854;48.538;14.352;2023-04-25T13:57:11;1.23;;;1.10;;
64469;SDS011;50854;48.538;14.352;2023-04-25T13:58:12;1.00;;;0.50;;
64469;SDS011;50854;48.538;14.352;2023-04-25T13:59:12;5.00;;;1.00;;
64469;SDS011;50854;48.538;14.352;2023-04-25T14:00:12;0.40;;;0.40;;
64469;SDS011;50854;48.538;14.352;2023-04-25T14:01:13;3.83;;;1.60;;
64469;SDS011;50854;48.538;14.352;2023-04-25T14:02:13;5.40;;;0.50;;
64469;SDS011;50854;48.538;14.352;2023-04-25T14:03:14;0.40;;;0.40;;
64469;SDS011;50854;48.538;14.352;2023-04-25T14:04:14;1.07;;;0.60;;
64469;SDS011;50854;48.538;14.352;2023-04-25T14:05:14;1.43;;;0.60;;
64469;SDS011;50854;48.538;14.352;2023-04-25T14:06:14;1.30;;;0.60;;
64469;SDS011;50854;48.538;14.352;2023-04-25T14:07:21;0.75;;;0.55;;
64469;SDS011;50854;48.538;14.352;2023-04-25T14:08:21;1.00;;;0.80;;
64469;SDS011;50854;48.538;14.352;2023-04-25T14:09:21;1.07;;;0.80;;
64469;SDS011;50854;48.538;14.352;2023-04-25T14:10:25;1.17;;;0.88;;
64469;SDS011;50854;48.538;14.352;2023-04-25T14:11:25;1.17;;;0.70;;
64469;SDS011;50854;48.538;14.352;2023-04-25T14:12:26;0.93;;;0.80;;
64469;SDS011;50854;48.538;14.352;2023-04-25T14:13:26;0.53;;;0.50;;
64469;SDS011;50854;48.538;14.352;2023-04-25T14:14:26;2.53;;;1.23;;
64469;SDS011;50854;48.538;14.352;2023-04-25T14:15:26;3.00;;;1.50;;
64469;SDS011;50854;48.538;14.352;2023-04-25T14:16:27;1.10;;;1.00;;
64469;SDS011;50854;48.538;14.352;2023-04-25T14:17:27;1.20;;;0.80;;
64469;SDS011;50854;48.538;14.352;2023-04-25T14:18:27;1.47;;;0.90;;
64469;SDS011;50854;48.538;14.352;2023-04-25T14:19:28;1.40;;;0.90;;
64469;SDS011;50854;48.538;14.352;2023-04-25T14:20:28;1.88;;;1.02;;
64469;SDS011;50854;48.538;14.352;2023-04-25T14:21:29;1.17;;;1.00;;
64469;SDS011;50854;48.538;14.352;2023-04-25T14:22:32;0.85;;;0.68;;
64469;SDS011;50854;48.538;14.352;2023-04-25T14:23:32;0.63;;;0.50;;
64469;SDS011;50854;48.538;14.352;2023-04-25T14:24:32;5.17;;;0.77;;
64469;SDS011;50854;48.538;14.352;2023-04-25T14:25:32;0.90;;;0.70;;
64469;SDS011;50854;48.538;14.352;2023-04-25T14:26:33;4.27;;;0.90;;
64469;SDS011;50854;48.538;14.352;2023-04-25T14:27:33;0.97;;;0.73;;
64469;SDS011;50854;48.538;14.352;2023-04-25T14:28:33;1.23;;;0.80;;
64469;SDS011;50854;48.538;14.352;2023-04-25T14:29:34;4.03;;;0.77;;
64469;SDS011;50854;48.538;14.352;2023-04-25T14:30:34;1.30;;;1.00;;
64469;SDS011;50854;48.538;14.352;2023-04-25T14:31:34;1.00;;;0.73;;
64469;SDS011;50854;48.538;14.352;2023-04-25T14:32:35;1.90;;;0.77;;
64469;SDS011;50854;48.538;14.352;2023-04-25T14:33:35;0.87;;;0.60;;
64469;SDS011;50854;48.538;14.352;2023-04-25T14:34:37;1.23;;;0.70;;
64469;SDS011;50854;48.538;14.352;2023-04-25T14:35:37;0.97;;;0.60;;
64469;SDS011;50854;48.538;14.352;2023-04-25T14:36:37;0.77;;;0.77;;
64469;SDS011;50854;48.538;14.352;2023-04-25T14:37:38;1.55;;;0.90;;
64469;SDS011;50854;48.538;14.352;2023-04-25T14:38:39;1.85;;;0.90;;
64469;SDS011;50854;48.538;14.352;2023-04-25T14:39:39;1.20;;;0.83;;
64469;SDS011;50854;48.538;14.352;2023-04-25T14:40:40;0.43;;;0.43;;
64469;SDS011;50854;48.538;14.352;2023-04-25T14:41:40;1.27;;;0.83;;
64469;SDS011;50854;48.538;14.352;2023-04-25T14:42:40;1.10;;;0.90;;
64469;SDS011;50854;48.538;14.352;2023-04-25T14:43:41;2.63;;;0.90;;
64469;SDS011;50854;48.538;14.352;2023-04-25T14:44:41;2.07;;;1.20;;
64469;SDS011;50854;48.538;14.352;2023-04-25T14:45:41;0.73;;;0.70;;
64469;SDS011;50854;48.538;14.352;2023-04-25T14:46:42;0.67;;;0.67;;
64469;SDS011;50854;48.538;14.352;2023-04-25T14:47:42;0.97;;;0.83;;
64469;SDS011;50854;48.538;14.352;2023-04-25T14:48:42;0.87;;;0.70;;
64469;SDS011;50854;48.538;14.352;2023-04-25T14:49:43;1.00;;;0.80;;
64469;SDS011;50854;48.538;14.352;2023-04-25T14:51:44;1.15;;;0.80;;
64469;SDS011;50854;48.538;14.352;2023-04-25T14:52:44;1.27;;;0.80;;
64469;SDS011;50854;48.538;14.352;2023-04-25T14:53:45;1.08;;;0.73;;
64469;SDS011;50854;48.538;14.352;2023-04-25T14:54:45;1.27;;;0.77;;
64469;SDS011;50854;48.538;14.352;2023-04-25T14:55:45;0.90;;;0.70;;
64469;SDS011;50854;48.538;14.352;2023-04-25T14:56:46;0.60;;;0.53;;
64469;SDS011;50854;48.538;14.352;2023-04-25T14:57:46;2.60;;;0.65;;
64469;SDS011;50854;48.538;14.352;2023-04-25T14:58:47;1.30;;;0.67;;
64469;SDS011;50854;48.538;14.352;2023-04-25T14:59:47;1.23;;;0.87;;
64469;SDS011;50854;48.538;14.352;2023-04-25T15:00:47;1.43;;;0.80;;
64469;SDS011;50854;48.538;14.352;2023-04-25T15:01:48;0.73;;;0.70;;
64469;SDS011;50854;48.538;14.352;2023-04-25T15:02:49;1.25;;;0.80;;
64469;SDS011;50854;48.538;14.352;2023-04-25T15:03:49;1.47;;;0.70;;
64469;SDS011;50854;48.538;14.352;2023-04-25T15:04:50;1.83;;;1.00;;
64469;SDS011;50854;48.538;14.352;2023-04-25T15:05:51;0.70;;;0.70;;
64469;SDS011;50854;48.538;14.352;2023-04-25T15:06:51;0.90;;;0.90;;
64469;SDS011;50854;48.538;14.352;2023-04-25T15:07:52;0.80;;;0.70;;
64469;SDS011;50854;48.538;14.352;2023-04-25T15:08:52;1.07;;;0.60;;
64469;SDS011;50854;48.538;14.352;2023-04-25T15:09:52;1.10;;;0.63;;
64469;SDS011;50854;48.538;14.352;2023-04-25T15:11:53;0.98;;;0.70;;
64469;SDS011;50854;48.538;14.352;2023-04-25T15:12:54;1.07;;;0.60;;
64469;SDS011;50854;48.538;14.352;2023-04-25T15:13:55;1.30;;;0.90;;
64469;SDS011;50854;48.538;14.352;2023-04-25T15:14:55;0.83;;;0.70;;
64469;SDS011;50854;48.538;14.352;2023-04-25T15:15:55;1.00;;;0.70;;
64469;SDS011;50854;48.538;14.352;2023-04-25T15:16:56;1.20;;;0.57;;
64469;SDS011;50854;48.538;14.352;2023-04-25T15:17:56;0.93;;;0.70;;
64469;SDS011;50854;48.538;14.352;2023-04-25T15:18:57;0.90;;;0.80;;
64469;SDS011;50854;48.538;14.352;2023-04-25T15:19:57;1.20;;;0.90;;
64469;SDS011;50854;48.538;14.352;2023-04-25T15:20:57;1.43;;;1.17;;
64469;SDS011;50854;48.538;14.352;2023-04-25T15:21:57;1.37;;;0.90;;
64469;SDS011;50854;48.538;14.352;2023-04-25T15:23:01;6.68;;;1.30;;
64469;SDS011;50854;48.538;14.352;2023-04-25T15:24:03;1.20;;;1.00;;
64469;SDS011;50854;48.538;14.352;2023-04-25T15:25:03;2.13;;;1.10;;
64469;SDS011;50854;48.538;14.352;2023-04-25T15:26:04;1.97;;;1.10;;
64469;SDS011;50854;48.538;14.352;2023-04-25T15:27:04;0.80;;;0.80;;
64469;SDS011;50854;48.538;14.352;2023-04-25T15:28:05;1.70;;;1.03;;
64469;SDS011;50854;48.538;14.352;2023-04-25T15:29:05;1.10;;;0.83;;
64469;SDS011;50854;48.538;14.352;2023-04-25T15:31:07;1.58;;;1.05;;
64469;SDS011;50854;48.538;14.352;2023-04-25T15:32:07;2.13;;;0.87;;
64469;SDS011;50854;48.538;14.352;2023-04-25T15:33:07;1.00;;;0.70;;
64469;SDS011;50854;48.538;14.352;2023-04-25T15:34:07;1.40;;;0.90;;
64469;SDS011;50854;48.538;14.352;2023-04-25T15:35:08;0.50;;;0.50;;
64469;SDS011;50854;48.538;14.352;2023-04-25T15:36:08;1.55;;;1.23;;
64469;SDS011;50854;48.538;14.352;2023-04-25T15:37:10;2.83;;;1.70;;
64469;SDS011;50854;48.538;14.352;2023-04-25T15:38:10;0.70;;;0.70;;
64469;SDS011;50854;48.538;14.352;2023-04-25T15:39:11;0.90;;;0.73;;
64469;SDS011;50854;48.538;14.352;2023-04-25T15:40:12;0.90;;;0.77;;
64469;SDS011;50854;48.538;14.352;2023-04-25T15:41:13;0.50;;;0.50;;
64469;SDS011;50854;48.538;14.352;2023-04-25T15:42:13;1.83;;;0.80;;
64469;SDS011;50854;48.538;14.352;2023-04-25T15:43:14;1.60;;;0.90;;
64469;SDS011;50854;48.538;14.352;2023-04-25T15:44:16;0.65;;;0.52;;
64469;SDS011;50854;48.538;14.352;2023-04-25T15:45:16;0.70;;;0.67;;
64469;SDS011;50854;48.538;14.352;2023-04-25T15:46:17;0.75;;;0.60;;
64469;SDS011;50854;48.538;14.352;2023-04-25T15:47:17;0.97;;;0.70;;
64469;SDS011;50854;48.538;14.352;2023-04-25T15:48:17;1.37;;;0.80;;
64469;SDS011;50854;48.538;14.352;2023-04-25T15:49:18;1.07;;;0.80;;
64469;SDS011;50854;48.538;14.352;2023-04-25T15:50:20;0.80;;;0.63;;
64469;SDS011;50854;48.538;14.352;2023-04-25T15:51:21;1.52;;;0.70;;
64469;SDS011;50854;48.538;14.352;2023-04-25T15:52:21;0.93;;;0.90;;
64469;SDS011;50854;48.538;14.352;2023-04-25T15:53:21;1.50;;;1.13;;
64469;SDS011;50854;48.538;14.352;2023-04-25T15:54:22;1.00;;;0.90;;
64469;SDS011;50854;48.538;14.352;2023-04-25T15:55:22;2.00;;;0.60;;
64469;SDS011;50854;48.538;14.352;2023-04-25T15:56:22;1.27;;;0.83;;
64469;SDS011;50854;48.538;14.352;2023-04-25T15:57:23;1.35;;;0.80;;
64469;SDS011;50854;48.538;14.352;2023-04-25T15:58:23;1.37;;;1.10;;
64469;SDS011;50854;48.538;14.352;2023-04-25T15:59:23;2.60;;;1.40;;
64469;SDS011;50854;48.538;14.352;2023-04-25T16:00:24;3.53;;;1.17;;
64469;SDS011;50854;48.538;14.352;2023-04-25T16:01:24;1.65;;;1.00;;
64469;SDS011;50854;48.538;14.352;2023-04-25T16:02:25;4.53;;;1.70;;
64469;SDS011;50854;48.538;14.352;2023-04-25T16:03:25;1.80;;;1.10;;
64469;SDS011;50854;48.538;14.352;2023-04-25T16:04:26;1.63;;;1.00;;
64469;SDS011;50854;48.538;14.352;2023-04-25T16:05:29;1.70;;;1.00;;
64469;SDS011;50854;48.538;14.352;2023-04-25T16:06:30;1.93;;;0.93;;
64469;SDS011;50854;48.538;14.352;2023-04-25T16:07:30;2.60;;;1.03;;
64469;SDS011;50854;48.538;14.352;2023-04-25T16:08:30;1.03;;;0.90;;
64469;SDS011;50854;48.538;14.352;2023-04-25T16:09:35;0.85;;;0.60;;
64469;SDS011;50854;48.538;14.352;2023-04-25T16:10:35;0.80;;;0.70;;
64469;SDS011;50854;48.538;14.352;2023-04-25T16:11:35;2.27;;;1.07;;
64469;SDS011;50854;48.538;14.352;2023-04-25T16:12:37;1.90;;;0.90;;
64469;SDS011;50854;48.538;14.352;2023-04-25T16:13:37;1.40;;;1.30;;
64469;SDS011;50854;48.538;14.352;2023-04-25T16:14:38;1.27;;;0.97;;
64469;SDS011;50854;48.538;14.352;2023-04-25T16:15:38;1.70;;;1.13;;
64469;SDS011;50854;48.538;14.352;2023-04-25T16:16:39;2.50;;;1.50;;
64469;SDS011;50854;48.538;14.352;2023-04-25T16:17:39;0.97;;;0.80;;
64469;SDS011;50854;48.538;14.352;2023-04-25T16:18:40;1.20;;;1.10;;
64469;SDS011;50854;48.538;14.352;2023-04-25T16:19:40;2.30;;;2.10;;
64469;SDS011;50854;48.538;14.352;2023-04-25T16:20:40;2.00;;;1.80;;
64469;SDS011;50854;48.538;14.352;2023-04-25T16:21:41;2.20;;;2.00;;
64469;SDS011;50854;48.538;14.352;2023-04-25T16:22:42;1.60;;;1.20;;
64469;SDS011;50854;48.538;14.352;2023-04-25T16:23:42;1.25;;;0.93;;
64469;SDS011;50854;48.538;14.352;2023-04-25T16:24:43;3.73;;;1.00;;
64469;SDS011;50854;48.538;14.352;2023-04-25T16:25:44;1.80;;;1.20;;
64469;SDS011;50854;48.538;14.352;2023-04-25T16:26:44;1.40;;;1.30;;
64469;SDS011;50854;48.538;14.352;2023-04-25T16:27:44;2.43;;;1.60;;
64469;SDS011;50854;48.538;14.352;2023-04-25T16:28:44;1.40;;;1.10;;
64469;SDS011;50854;48.538;14.352;2023-04-25T16:29:45;2.07;;;1.70;;
64469;SDS011;50854;48.538;14.352;2023-04-25T16:30:45;1.70;;;1.33;;
64469;SDS011;50854;48.538;14.352;2023-04-25T16:31:45;1.97;;;1.20;;
64469;SDS011;50854;48.538;14.352;2023-04-25T16:32:46;4.00;;;1.48;;
64469;SDS011;50854;48.538;14.352;2023-04-25T16:33:46;1.87;;;1.30;;
64469;SDS011;50854;48.538;14.352;2023-04-25T16:34:46;1.77;;;1.27;;
64469;SDS011;50854;48.538;14.352;2023-04-25T16:35:47;1.90;;;1.10;;
64469;SDS011;50854;48.538;14.352;2023-04-25T16:36:49;1.70;;;1.20;;
64469;SDS011;50854;48.538;14.352;2023-04-25T16:37:49;1.57;;;1.03;;
64469;SDS011;50854;48.538;14.352;2023-04-25T16:38:49;1.33;;;1.00;;
64469;SDS011;50854;48.538;14.352;2023-04-25T16:39:50;1.90;;;1.17;;
64469;SDS011;50854;48.538;14.352;2023-04-25T16:40:50;0.90;;;0.90;;
64469;SDS011;50854;48.538;14.352;2023-04-25T16:41:50;1.10;;;1.00;;
64469;SDS011;50854;48.538;14.352;2023-04-25T16:42:51;1.33;;;0.90;;
64469;SDS011;50854;48.538;14.352;2023-04-25T16:43:51;2.23;;;1.27;;
64469;SDS011;50854;48.538;14.352;2023-04-25T16:44:51;0.57;;;0.57;;
64469;SDS011;50854;48.538;14.352;2023-04-25T16:45:52;1.27;;;1.10;;
64469;SDS011;50854;48.538;14.352;2023-04-25T16:46:52;2.20;;;1.33;;
64469;SDS011;50854;48.538;14.352;2023-04-25T16:47:52;1.20;;;0.90;;
64469;SDS011;50854;48.538;14.352;2023-04-25T16:48:52;1.83;;;1.30;;
64469;SDS011;50854;48.538;14.352;2023-04-25T16:49:53;2.47;;;1.10;;
64469;SDS011;50854;48.538;14.352;2023-04-25T16:50:53;1.20;;;1.10;;
64469;SDS011;50854;48.538;14.352;2023-04-25T16:51:53;0.80;;;0.80;;
64469;SDS011;50854;48.538;14.352;2023-04-25T16:52:53;1.23;;;0.90;;
64469;SDS011;50854;48.538;14.352;2023-04-25T16:53:53;1.33;;;1.07;;
64469;SDS011;50854;48.538;14.352;2023-04-25T16:54:55;1.70;;;0.95;;
64469;SDS011;50854;48.538;14.352;2023-04-25T16:55:55;2.30;;;1.20;;
64469;SDS011;50854;48.538;14.352;2023-04-25T16:56:55;2.97;;;0.83;;
64469;SDS011;50854;48.538;14.352;2023-04-25T16:57:57;1.40;;;1.30;;
64469;SDS011;50854;48.538;14.352;2023-04-25T16:58:57;2.30;;;1.47;;
64469;SDS011;50854;48.538;14.352;2023-04-25T16:59:57;1.80;;;1.60;;
64469;SDS011;50854;48.538;14.352;2023-04-25T17:00:58;1.43;;;1.27;;
64469;SDS011;50854;48.538;14.352;2023-04-25T17:01:58;1.43;;;1.30;;
64469;SDS011;50854;48.538;14.352;2023-04-25T17:02:58;1.83;;;1.43;;
64469;SDS011;50854;48.538;14.352;2023-04-25T17:03:58;1.03;;;0.93;;
64469;SDS011;50854;48.538;14.352;2023-04-25T17:04:59;1.73;;;1.10;;
64469;SDS011;50854;48.538;14.352;2023-04-25T17:05:59;2.37;;;1.30;;
64469;SDS011;50854;48.538;14.352;2023-04-25T17:07:00;2.63;;;1.27;;
64469;SDS011;50854;48.538;14.352;2023-04-25T17:08:00;1.10;;;0.87;;
64469;SDS011;50854;48.538;14.352;2023-04-25T17:09:00;1.67;;;1.00;;
64469;SDS011;50854;48.538;14.352;2023-04-25T17:10:01;2.07;;;1.03;;
64469;SDS011;50854;48.538;14.352;2023-04-25T17:11:01;1.50;;;1.03;;
64469;SDS011;50854;48.538;14.352;2023-04-25T17:12:02;2.17;;;1.30;;
64469;SDS011;50854;48.538;14.352;2023-04-25T17:13:03;1.70;;;1.27;;
64469;SDS011;50854;48.538;14.352;2023-04-25T17:14:03;2.10;;;1.87;;
64469;SDS011;50854;48.538;14.352;2023-04-25T17:15:04;2.70;;;1.50;;
64469;SDS011;50854;48.538;14.352;2023-04-25T17:16:04;2.47;;;1.77;;
64469;SDS011;50854;48.538;14.352;2023-04-25T17:17:05;1.23;;;1.02;;
64469;SDS011;50854;48.538;14.352;2023-04-25T17:18:05;2.60;;;1.77;;
64469;SDS011;50854;48.538;14.352;2023-04-25T17:19:06;2.97;;;1.40;;
64469;SDS011;50854;48.538;14.352;2023-04-25T17:20:07;1.80;;;1.42;;
64469;SDS011;50854;48.538;14.352;2023-04-25T17:21:08;1.30;;;1.10;;
64469;SDS011;50854;48.538;14.352;2023-04-25T17:22:09;1.90;;;1.20;;
64469;SDS011;50854;48.538;14.352;2023-04-25T17:23:09;1.90;;;1.20;;
64469;SDS011;50854;48.538;14.352;2023-04-25T17:24:09;1.40;;;1.20;;
64469;SDS011;50854;48.538;14.352;2023-04-25T17:25:10;1.90;;;1.10;;
64469;SDS011;50854;48.538;14.352;2023-04-25T17:26:11;1.50;;;1.20;;
64469;SDS011;50854;48.538;14.352;2023-04-25T17:27:11;1.45;;;1.00;;
64469;SDS011;50854;48.538;14.352;2023-04-25T17:28:12;2.67;;;1.20;;
64469;SDS011;50854;48.538;14.352;2023-04-25T17:29:12;1.23;;;1.00;;
64469;SDS011;50854;48.538;14.352;2023-04-25T17:30:12;4.03;;;1.40;;
64469;SDS011;50854;48.538;14.352;2023-04-25T17:31:13;4.93;;;1.77;;
64469;SDS011;50854;48.538;14.352;2023-04-25T17:32:13;1.60;;;1.40;;
64469;SDS011;50854;48.538;14.352;2023-04-25T17:33:14;1.70;;;0.85;;
64469;SDS011;50854;48.538;14.352;2023-04-25T17:34:14;1.87;;;1.30;;
64469;SDS011;50854;48.538;14.352;2023-04-25T17:35:17;2.25;;;1.55;;
64469;SDS011;50854;48.538;14.352;2023-04-25T17:36:17;1.70;;;1.60;;
64469;SDS011;50854;48.538;14.352;2023-04-25T17:37:17;2.85;;;2.10;;
64469;SDS011;50854;48.538;14.352;2023-04-25T17:38:18;1.98;;;1.48;;
64469;SDS011;50854;48.538;14.352;2023-04-25T17:39:19;2.13;;;1.70;;
64469;SDS011;50854;48.538;14.352;2023-04-25T17:40:19;2.03;;;1.47;;
64469;SDS011;50854;48.538;14.352;2023-04-25T17:41:22;2.28;;;1.30;;
64469;SDS011;50854;48.538;14.352;2023-04-25T17:42:22;1.83;;;1.40;;
64469;SDS011;50854;48.538;14.352;2023-04-25T17:43:23;2.93;;;1.70;;
64469;SDS011;50854;48.538;14.352;2023-04-25T17:44:24;2.95;;;2.00;;
64469;SDS011;50854;48.538;14.352;2023-04-25T17:45:25;2.85;;;1.90;;
64469;SDS011;50854;48.538;14.352;2023-04-25T17:46:25;3.47;;;1.87;;
64469;SDS011;50854;48.538;14.352;2023-04-25T17:47:26;2.53;;;1.75;;
64469;SDS011;50854;48.538;14.352;2023-04-25T17:48:26;1.77;;;1.43;;
64469;SDS011;50854;48.538;14.352;2023-04-25T17:49:27;2.10;;;1.60;;
64469;SDS011;50854;48.538;14.352;2023-04-25T17:50:27;2.47;;;2.00;;
64469;SDS011;50854;48.538;14.352;2023-04-25T17:51:27;2.30;;;1.83;;
64469;SDS011;50854;48.538;14.352;2023-04-25T17:52:28;3.87;;;2.17;;
64469;SDS011;50854;48.538;14.352;2023-04-25T17:53:28;2.03;;;1.70;;
64469;SDS011;50854;48.538;14.352;2023-04-25T17:54:28;2.87;;;1.93;;
64469;SDS011;50854;48.538;14.352;2023-04-25T17:55:28;3.07;;;1.90;;
64469;SDS011;50854;48.538;14.352;2023-04-25T17:56:29;2.67;;;2.10;;
64469;SDS011;50854;48.538;14.352;2023-04-25T17:57:29;3.30;;;2.07;;